Terminal Aerodrome Forecast
Issued by NWS

Home | Current Version | Previous Version | Text Only | Print | Product List | Glossary On
Versions: 1 2 3 4 5 6 7 8 9 10 11 12 13
000
FTUS46 KOTX 261720
TAFCOE
TAF
KCOE 261720Z 2618/2718 05005KT P6SM FEW250
     FM262000 27005KT P6SM FEW250
     FM270300 09004KT P6SM SCT200
     FM270700 11004KT P6SM BKN200=

USA.gov is the U.S. government's official web portal to all federal, state and local government web resources and services.